Time;durP1;ratioP1;P1;durP2;ratioP2;P2;SDS_P1;SDS_P2;PMS_P1;PMS_P2;Temp;Humidity;BMP_temperature;BMP_pressure;BME280_temperature;BME280_humidity;BME280_pressure;Samples;Min_cycle;Max_cycle;Signal;HPM_P1;HPM_P2
2021/05/04 00:01:19;;;;;;;0.70;0.70;;;23.10;26.10;;;;;;5012615;28;20044;-59
2021/05/04 00:03:45;;;;;;;0.73;0.63;;;23.00;26.00;;;;;;5012488;28;20457;-54
2021/05/04 00:06:10;;;;;;;1.40;0.82;;;23.00;26.00;;;;;;5012465;28;20105;-57
2021/05/04 00:08:36;;;;;;;1.23;0.90;;;23.00;26.00;;;;;;5012172;28;20397;-58
2021/05/04 00:11:02;;;;;;;1.17;0.85;;;23.00;26.00;;;;;;5012745;28;20045;-58
2021/05/04 00:13:28;;;;;;;1.02;0.60;;;23.00;26.00;;;;;;5012032;28;20382;-57
2021/05/04 00:15:53;;;;;;;1.27;1.02;;;23.00;26.00;;;;;;5013083;28;20096;-56
2021/05/04 00:18:19;;;;;;;1.00;0.77;;;23.00;26.10;;;;;;5011171;28;20323;-54
2021/05/04 00:20:45;;;;;;;1.35;0.88;;;23.00;26.10;;;;;;5010931;28;20128;-61
2021/05/04 00:23:11;;;;;;;1.15;0.70;;;23.00;26.10;;;;;;5012425;28;20116;-58
2021/05/04 00:25:37;;;;;;;0.63;0.60;;;23.00;26.10;;;;;;5013055;28;20087;-61
2021/05/04 00:28:03;;;;;;;1.05;0.68;;;23.00;26.20;;;;;;5012061;28;20137;-57
2021/05/04 00:30:29;;;;;;;0.70;0.60;;;22.90;26.10;;;;;;5010826;28;20044;-59
2021/05/04 00:32:55;;;;;;;1.38;0.60;;;22.90;26.20;;;;;;5010447;28;20505;-57
2021/05/04 00:35:21;;;;;;;1.00;0.60;;;22.90;26.20;;;;;;5012542;28;20049;-53
2021/05/04 00:37:46;;;;;;;1.30;0.60;;;22.90;26.20;;;;;;5012138;28;20096;-54
2021/05/04 00:40:13;;;;;;;0.98;0.70;;;22.90;26.20;;;;;;5011924;28;20117;-54
2021/05/04 00:42:38;;;;;;;0.95;0.52;;;22.90;26.20;;;;;;5011942;28;20061;-56
2021/05/04 00:45:05;;;;;;;1.15;0.70;;;22.90;26.30;;;;;;5011936;28;20054;-60
2021/05/04 00:47:31;;;;;;;0.50;0.50;;;22.90;26.30;;;;;;5013314;28;20045;-56
2021/05/04 00:49:57;;;;;;;1.42;0.65;;;22.90;26.40;;;;;;5015868;28;20040;-59
2021/05/04 00:52:24;;;;;;;1.00;0.63;;;22.90;26.50;;;;;;5015654;28;20105;-58
2021/05/04 00:54:50;;;;;;;0.90;0.47;;;22.90;26.50;;;;;;5015806;28;20445;-56
2021/05/04 00:57:16;;;;;;;1.00;0.60;;;22.90;26.60;;;;;;5015297;28;20049;-54
2021/05/04 00:59:44;;;;;;;0.68;0.40;;;22.80;26.70;;;;;;5015921;28;20065;-57
2021/05/04 01:02:11;;;;;;;0.77;0.55;;;22.80;26.70;;;;;;5015325;28;20030;-54
2021/05/04 01:04:39;;;;;;;1.42;0.70;;;22.80;26.80;;;;;;5014237;28;20022;-59
2021/05/04 01:07:05;;;;;;;0.52;0.50;;;22.80;26.90;;;;;;5016209;28;20030;-54
2021/05/04 01:09:31;;;;;;;1.55;0.47;;;22.80;27.00;;;;;;5014895;28;20044;-59
2021/05/04 01:11:57;;;;;;;1.70;0.57;;;22.80;27.10;;;;;;5015585;28;20383;-56
2021/05/04 01:14:23;;;;;;;1.20;0.63;;;22.80;27.20;;;;;;5016134;28;20021;-58
2021/05/04 01:16:49;;;;;;;0.70;0.40;;;22.80;27.30;;;;;;5015372;28;20453;-55
2021/05/04 01:19:19;;;;;;;0.57;0.57;;;22.80;27.40;;;;;;5015073;28;20030;-59
2021/05/04 01:21:45;;;;;;;0.98;0.60;;;22.80;27.50;;;;;;5015195;28;20037;-58
2021/05/04 01:24:12;;;;;;;1.15;0.50;;;22.80;27.50;;;;;;5014636;28;20049;-58
2021/05/04 01:26:41;;;;;;;2.85;0.40;;;22.80;27.60;;;;;;5016062;28;20021;-58
2021/05/04 01:29:08;;;;;;;0.40;0.40;;;22.80;27.70;;;;;;5015868;28;20059;-57
2021/05/04 01:31:33;;;;;;;0.40;0.30;;;22.70;28.20;;;;;;5015256;28;20041;-58
2021/05/04 01:33:59;;;;;;;1.40;0.60;;;22.70;27.80;;;;;;5015448;28;20042;-58
2021/05/04 01:36:25;;;;;;;0.90;0.60;;;22.70;27.90;;;;;;5015208;28;20030;-54
2021/05/04 01:38:51;;;;;;;0.50;0.50;;;22.70;27.90;;;;;;5014753;28;20029;-55
2021/05/04 01:41:17;;;;;;;0.65;0.30;;;22.70;28.00;;;;;;5014723;28;20045;-56
2021/05/04 01:43:43;;;;;;;1.15;0.60;;;22.70;28.10;;;;;;5013715;28;20450;-58
2021/05/04 01:46:09;;;;;;;0.68;0.50;;;22.70;28.10;;;;;;5015377;28;20117;-54
2021/05/04 01:48:35;;;;;;;1.52;0.55;;;22.70;28.20;;;;;;5014114;28;20049;-57
2021/05/04 01:51:01;;;;;;;2.13;0.40;;;22.70;28.30;;;;;;5015992;28;20056;-57
2021/05/04 01:53:27;;;;;;;1.08;0.50;;;22.70;28.30;;;;;;5014552;28;20030;-57
2021/05/04 01:55:52;;;;;;;0.45;0.40;;;22.70;28.40;;;;;;5014231;28;20044;-59
2021/05/04 01:58:18;;;;;;;0.60;0.40;;;22.70;28.40;;;;;;5013336;28;20045;-56
2021/05/04 02:00:44;;;;;;;1.92;0.60;;;22.60;28.50;;;;;;5015292;28;20029;-57
2021/05/04 02:03:10;;;;;;;0.70;0.30;;;22.60;28.50;;;;;;5014307;28;20121;-60
2021/05/04 02:05:36;;;;;;;0.73;0.40;;;22.60;28.60;;;;;;5014762;28;20113;-60
2021/05/04 02:08:01;;;;;;;0.80;0.40;;;22.60;28.60;;;;;;5012537;28;20033;-55
2021/05/04 02:10:27;;;;;;;0.57;0.50;;;22.60;28.70;;;;;;5014411;28;20038;-58
2021/05/04 02:12:53;;;;;;;0.95;0.40;;;22.60;28.80;;;;;;5015219;28;20044;-60
2021/05/04 02:15:19;;;;;;;0.30;0.30;;;22.60;28.80;;;;;;5012544;28;20030;-57
2021/05/04 02:17:45;;;;;;;0.52;0.30;;;22.60;28.90;;;;;;5013619;28;20032;-58
2021/05/04 02:20:11;;;;;;;1.15;0.57;;;22.60;29.00;;;;;;5014051;28;20040;-57
2021/05/04 02:22:37;;;;;;;1.05;0.52;;;22.50;29.00;;;;;;5014126;28;20032;-56
2021/05/04 02:25:05;;;;;;;1.33;0.50;;;22.50;29.10;;;;;;5014517;28;20030;-59
2021/05/04 02:27:30;;;;;;;0.30;0.30;;;22.50;29.10;;;;;;5014128;28;20089;-57
2021/05/04 02:29:56;;;;;;;0.70;0.47;;;22.50;29.30;;;;;;5014863;28;20030;-55
2021/05/04 02:32:22;;;;;;;0.30;0.30;;;22.50;29.30;;;;;;5014246;28;20029;-60
2021/05/04 02:34:48;;;;;;;1.10;0.50;;;22.50;29.30;;;;;;5012812;28;20044;-57
2021/05/04 02:37:15;;;;;;;0.50;0.50;;;22.50;29.30;;;;;;5014355;28;20032;-58
2021/05/04 02:39:40;;;;;;;0.38;0.30;;;22.50;29.40;;;;;;5014492;28;20049;-56
2021/05/04 02:42:07;;;;;;;1.33;0.40;;;22.50;29.50;;;;;;5012706;28;20026;-55
2021/05/04 02:44:33;;;;;;;0.45;0.32;;;22.50;29.50;;;;;;5014137;28;20412;-55
2021/05/04 02:46:59;;;;;;;0.40;0.38;;;22.50;29.60;;;;;;5014154;28;20029;-58
2021/05/04 02:49:24;;;;;;;0.47;0.40;;;22.50;29.60;;;;;;5013669;28;20068;-57
2021/05/04 02:51:50;;;;;;;0.30;0.30;;;22.50;29.60;;;;;;5013531;28;20457;-57
2021/05/04 02:54:16;;;;;;;0.82;0.25;;;22.40;29.70;;;;;;5013451;28;20034;-59
2021/05/04 02:56:42;;;;;;;0.93;0.50;;;22.40;29.70;;;;;;5012371;28;20108;-60
2021/05/04 02:59:08;;;;;;;1.15;0.30;;;22.40;29.70;;;;;;5012610;28;20054;-56
2021/05/04 03:01:33;;;;;;;1.10;0.40;;;22.40;29.80;;;;;;5013798;28;20033;-55
2021/05/04 03:03:59;;;;;;;0.57;0.30;;;22.40;29.80;;;;;;5013694;28;20033;-53
2021/05/04 03:06:25;;;;;;;0.93;0.50;;;22.40;29.90;;;;;;5013162;28;20037;-53
2021/05/04 03:08:51;;;;;;;0.98;0.30;;;22.40;29.90;;;;;;5013361;28;20034;-58
2021/05/04 03:11:17;;;;;;;0.50;0.40;;;22.40;30.00;;;;;;5013478;28;20083;-56
2021/05/04 03:13:42;;;;;;;2.78;0.65;;;22.40;30.00;;;;;;5014150;28;20053;-53
2021/05/04 03:16:08;;;;;;;0.40;0.40;;;22.40;30.00;;;;;;5012867;28;20029;-56
2021/05/04 03:18:34;;;;;;;0.63;0.30;;;22.40;30.10;;;;;;5012892;28;20414;-59
2021/05/04 03:21:00;;;;;;;0.40;0.40;;;22.40;30.10;;;;;;5013446;28;20026;-55
2021/05/04 03:23:26;;;;;;;0.73;0.35;;;22.40;30.20;;;;;;5013357;28;20120;-59
2021/05/04 03:25:51;;;;;;;1.13;0.43;;;22.30;30.20;;;;;;5013480;28;20149;-55
2021/05/04 03:28:18;;;;;;;0.30;0.28;;;22.40;30.30;;;;;;5012993;28;20449;-57
2021/05/04 03:30:44;;;;;;;0.52;0.20;;;22.30;30.40;;;;;;5012596;28;20025;-57
2021/05/04 03:33:10;;;;;;;0.75;0.40;;;22.30;30.40;;;;;;5012512;28;20109;-54
2021/05/04 03:35:36;;;;;;;0.43;0.40;;;22.30;30.50;;;;;;5012350;28;20021;-58
2021/05/04 03:38:03;;;;;;;0.32;0.30;;;22.30;30.50;;;;;;5013151;28;20033;-60
2021/05/04 03:40:30;;;;;;;0.55;0.22;;;22.30;30.50;;;;;;5013195;28;20357;-57
2021/05/04 03:42:56;;;;;;;0.20;0.20;;;22.30;30.60;;;;;;5010100;28;20045;-55
2021/05/04 03:45:21;;;;;;;0.88;0.52;;;22.30;30.60;;;;;;5012274;28;20500;-54
2021/05/04 03:47:47;;;;;;;0.45;0.45;;;22.30;30.60;;;;;;5012669;28;20144;-58
2021/05/04 03:50:17;;;;;;;0.82;0.45;;;22.30;30.60;;;;;;5011404;28;20048;-60
2021/05/04 03:52:43;;;;;;;0.20;0.20;;;22.30;30.70;;;;;;5013081;28;20026;-57
2021/05/04 03:55:10;;;;;;;0.95;0.30;;;22.30;30.70;;;;;;5013038;28;20030;-57
2021/05/04 03:57:36;;;;;;;0.88;0.43;;;22.30;30.70;;;;;;5012555;28;20369;-57
2021/05/04 04:00:04;;;;;;;0.50;0.40;;;22.20;30.70;;;;;;5012981;28;20037;-55
2021/05/04 04:02:30;;;;;;;0.50;0.30;;;22.30;30.90;;;;;;5012349;28;20042;-57
2021/05/04 04:04:56;;;;;;;0.57;0.30;;;22.20;30.80;;;;;;5012351;28;20088;-57
2021/05/04 04:07:22;;;;;;;0.47;0.10;;;22.20;30.90;;;;;;5012137;28;20105;-55
2021/05/04 04:09:47;;;;;;;0.47;0.30;;;22.20;31.00;;;;;;5012461;28;20396;-57
2021/05/04 04:12:13;;;;;;;0.17;0.17;;;22.20;31.00;;;;;;5010818;28;20022;-56
2021/05/04 04:14:39;;;;;;;0.50;0.40;;;22.20;31.10;;;;;;5012397;28;20084;-56
2021/05/04 04:17:05;;;;;;;0.20;0.20;;;22.20;31.10;;;;;;5013166;28;20052;-58
2021/05/04 04:19:31;;;;;;;0.90;0.30;;;22.20;31.20;;;;;;5012189;28;20038;-58
2021/05/04 04:21:57;;;;;;;0.35;0.30;;;22.20;31.20;;;;;;5011628;28;20032;-58
2021/05/04 04:24:23;;;;;;;0.40;0.30;;;22.20;31.30;;;;;;5012311;28;20432;-57
2021/05/04 04:26:48;;;;;;;0.43;0.43;;;22.20;31.30;;;;;;5011878;28;20400;-60
2021/05/04 04:29:14;;;;;;;0.65;0.30;;;22.20;31.40;;;;;;5012267;28;20111;-58
2021/05/04 04:31:41;;;;;;;0.35;0.35;;;22.20;31.40;;;;;;5012364;28;20030;-59
2021/05/04 04:34:08;;;;;;;0.38;0.30;;;22.10;31.40;;;;;;5012108;28;20438;-56
2021/05/04 04:36:34;;;;;;;0.50;0.30;;;22.20;31.50;;;;;;5011596;28;20033;-53
2021/05/04 04:39:01;;;;;;;0.50;0.30;;;22.10;31.50;;;;;;5012768;28;20457;-60
2021/05/04 04:41:27;;;;;;;0.30;0.30;;;22.10;31.50;;;;;;5012556;28;20034;-58
2021/05/04 04:43:53;;;;;;;0.30;0.30;;;22.10;31.60;;;;;;5012702;28;20026;-58
2021/05/04 04:46:18;;;;;;;0.95;0.28;;;22.10;31.60;;;;;;5012503;28;20033;-60
2021/05/04 04:48:44;;;;;;;0.60;0.28;;;22.10;31.70;;;;;;5012289;28;20685;-59
2021/05/04 04:51:10;;;;;;;1.33;0.30;;;22.10;31.70;;;;;;5011819;28;20088;-57
2021/05/04 04:53:36;;;;;;;0.30;0.30;;;22.10;31.80;;;;;;5012540;28;20045;-58
2021/05/04 04:56:02;;;;;;;1.98;0.50;;;22.10;31.90;;;;;;5012025;28;20421;-56
2021/05/04 04:58:28;;;;;;;0.28;0.28;;;22.10;31.90;;;;;;5011681;28;20034;-57
2021/05/04 05:00:54;;;;;;;0.57;0.30;;;22.00;31.90;;;;;;5010346;28;20088;-55
2021/05/04 05:03:23;;;;;;;0.30;0.22;;;22.10;32.00;;;;;;5011227;28;20059;-58
2021/05/04 05:05:50;;;;;;;0.47;0.30;;;22.00;32.00;;;;;;5011824;28;20057;-56
2021/05/04 05:08:16;;;;;;;0.28;0.28;;;22.00;32.10;;;;;;5008819;28;20034;-56
2021/05/04 05:10:42;;;;;;;0.68;0.28;;;22.10;32.20;;;;;;5012325;28;20026;-56
2021/05/04 05:13:07;;;;;;;0.32;0.30;;;22.00;32.10;;;;;;5011281;28;20029;-58
2021/05/04 05:15:38;;;;;;;0.22;0.20;;;22.00;32.20;;;;;;5011969;28;20064;-57
2021/05/04 05:18:06;;;;;;;0.30;0.30;;;22.00;32.20;;;;;;5012305;28;20396;-56
2021/05/04 05:20:35;;;;;;;0.85;0.30;;;22.00;32.30;;;;;;5012365;28;20065;-55
2021/05/04 05:23:01;;;;;;;0.85;0.35;;;22.00;32.30;;;;;;5012904;28;20124;-58
2021/05/04 05:25:27;;;;;;;0.40;0.30;;;22.00;32.40;;;;;;5010408;28;20389;-55
2021/05/04 05:27:53;;;;;;;0.30;0.20;;;22.00;32.40;;;;;;5011426;28;20045;-58
2021/05/04 05:30:19;;;;;;;0.52;0.50;;;22.00;32.40;;;;;;5012505;28;20098;-57
2021/05/04 05:32:45;;;;;;;0.30;0.20;;;22.00;32.40;;;;;;5011921;28;20057;-52
2021/05/04 05:35:11;;;;;;;0.20;0.20;;;22.00;32.40;;;;;;5016739;28;20025;-53
2021/05/04 05:37:37;;;;;;;0.70;0.40;;;22.00;32.50;;;;;;5013922;28;20449;-55
2021/05/04 05:40:04;;;;;;;0.85;0.40;;;22.00;32.50;;;;;;5015604;28;20066;-56
2021/05/04 05:42:29;;;;;;;0.43;0.20;;;22.00;32.50;;;;;;5014920;28;20040;-56
2021/05/04 05:44:55;;;;;;;0.85;0.30;;;22.00;32.60;;;;;;5014501;28;20026;-54
2021/05/04 05:47:21;;;;;;;0.30;0.30;;;21.90;32.60;;;;;;5015795;28;20115;-58
2021/05/04 05:49:47;;;;;;;1.10;0.32;;;22.00;32.70;;;;;;5016331;28;20040;-54
2021/05/04 05:52:13;;;;;;;0.98;0.43;;;22.00;32.70;;;;;;5015700;28;20037;-54
2021/05/04 05:54:39;;;;;;;0.77;0.40;;;21.90;32.60;;;;;;5014984;28;20022;-60
2021/05/04 05:57:05;;;;;;;0.45;0.30;;;21.90;32.60;;;;;;5009097;28;20045;-59
2021/05/04 05:59:31;;;;;;;0.22;0.20;;;21.90;32.60;;;;;;5014813;28;20061;-58
2021/05/04 06:01:57;;;;;;;1.00;0.30;;;21.90;32.60;;;;;;5013821;28;20044;-58
2021/05/04 06:04:23;;;;;;;0.60;0.30;;;21.90;32.60;;;;;;4998164;28;20037;-53
2021/05/04 06:06:49;;;;;;;0.25;0.10;;;21.90;32.60;;;;;;5014020;28;20052;-54
2021/05/04 06:09:15;;;;;;;0.57;0.35;;;22.00;32.70;;;;;;5015180;28;20469;-59
2021/05/04 06:11:41;;;;;;;0.70;0.30;;;21.90;32.60;;;;;;5014913;28;20113;-56
2021/05/04 06:14:07;;;;;;;0.52;0.22;;;21.90;32.70;;;;;;5013816;28;20033;-51
2021/05/04 06:16:33;;;;;;;0.70;0.40;;;21.90;32.60;;;;;;5013975;28;20104;-49
2021/05/04 06:18:59;;;;;;;0.30;0.25;;;21.90;32.70;;;;;;5014275;28;20033;-51
2021/05/04 06:21:25;;;;;;;0.70;0.30;;;22.00;32.90;;;;;;5013181;28;21638;-52
2021/05/04 06:23:51;;;;;;;0.50;0.32;;;21.90;33.10;;;;;;5014998;28;20038;-51
2021/05/04 06:26:18;;;;;;;0.50;0.40;;;22.00;33.30;;;;;;5014045;28;20045;-55
2021/05/04 06:28:50;;;;;;;0.80;0.40;;;22.00;33.40;;;;;;5015096;28;20450;-51
2021/05/04 06:31:17;;;;;;;0.68;0.47;;;22.00;33.40;;;;;;5012886;28;20088;-60
2021/05/04 06:33:43;;;;;;;0.60;0.40;;;22.00;33.30;;;;;;5014260;28;20117;-59
2021/05/04 06:36:09;;;;;;;0.93;0.60;;;22.00;33.20;;;;;;5015259;28;20112;-54
2021/05/04 06:38:36;;;;;;;1.35;0.65;;;22.10;33.20;;;;;;5014775;28;20030;-53
2021/05/04 06:41:02;;;;;;;1.08;0.40;;;22.20;33.10;;;;;;5013588;28;20022;-56
2021/05/04 06:43:28;;;;;;;1.15;0.30;;;22.30;33.00;;;;;;5014006;28;20040;-57
2021/05/04 06:45:54;;;;;;;2.22;0.30;;;22.40;32.90;;;;;;5014339;28;20021;-59
2021/05/04 06:48:20;;;;;;;0.95;0.55;;;22.50;32.80;;;;;;5009951;28;20080;-58
2021/05/04 06:50:46;;;;;;;0.73;0.43;;;22.50;32.60;;;;;;5013871;28;20330;-57
2021/05/04 06:53:12;;;;;;;1.02;0.30;;;22.60;32.50;;;;;;5012455;28;20025;-61
2021/05/04 06:55:38;;;;;;;0.82;0.40;;;22.70;32.50;;;;;;5014875;28;20145;-61
2021/05/04 06:58:03;;;;;;;0.93;0.40;;;22.80;32.40;;;;;;5014175;28;20045;-61
2021/05/04 07:00:29;;;;;;;0.93;0.35;;;22.90;32.30;;;;;;5013646;28;21456;-62
2021/05/04 07:02:55;;;;;;;0.77;0.40;;;23.00;32.30;;;;;;5010473;28;20136;-61
2021/05/04 07:05:21;;;;;;;0.80;0.47;;;23.00;32.20;;;;;;5012686;28;20029;-59
2021/05/04 07:07:48;;;;;;;1.00;0.30;;;23.10;32.10;;;;;;5014233;28;20029;-60
2021/05/04 07:10:13;;;;;;;1.52;0.73;;;23.20;32.10;;;;;;5013525;28;20131;-58
2021/05/04 07:12:42;;;;;;;1.00;0.50;;;23.20;31.90;;;;;;5013515;28;20117;-59
2021/05/04 07:15:08;;;;;;;0.98;0.45;;;23.30;31.90;;;;;;5013429;28;20029;-55
2021/05/04 07:17:34;;;;;;;0.77;0.40;;;23.40;31.90;;;;;;5013816;28;20036;-60
2021/05/04 07:20:00;;;;;;;2.78;0.55;;;23.40;31.80;;;;;;5011859;28;20029;-59
2021/05/04 07:22:29;;;;;;;0.90;0.40;;;23.50;31.70;;;;;;5014215;28;20445;-57
2021/05/04 07:25:03;;;;;;;1.13;0.50;;;23.50;31.70;;;;;;5011885;28;20371;-60
2021/05/04 07:27:28;;;;;;;0.57;0.45;;;23.50;31.60;;;;;;5013942;28;20061;-55
2021/05/04 07:29:54;;;;;;;1.05;0.50;;;23.50;31.50;;;;;;5013156;28;20424;-59
2021/05/04 07:32:20;;;;;;;1.20;0.63;;;23.60;31.60;;;;;;5027922;28;20405;-59
2021/05/04 07:34:46;;;;;;;0.60;0.50;;;23.60;31.50;;;;;;5014155;28;20108;-58
2021/05/04 07:37:14;;;;;;;1.65;0.77;;;23.60;31.50;;;;;;5013569;28;20072;-56
2021/05/04 07:39:41;;;;;;;1.58;0.82;;;23.60;31.50;;;;;;5013211;28;20022;-59
2021/05/04 07:42:09;;;;;;;1.85;1.10;;;23.70;31.50;;;;;;4998663;28;20061;-58
2021/05/04 07:44:35;;;;;;;1.45;0.88;;;23.70;31.50;;;;;;5013891;28;20068;-58
2021/05/04 07:47:01;;;;;;;1.75;1.00;;;23.70;31.50;;;;;;5014671;28;20069;-56
2021/05/04 07:49:47;;;;;;;1.77;0.90;;;23.70;31.50;;;;;;5024958;28;20042;-57
2021/05/04 07:52:13;;;;;;;1.75;1.00;;;23.70;31.50;;;;;;5014032;28;20041;-60
2021/05/04 07:54:39;;;;;;;2.10;1.38;;;23.70;31.40;;;;;;5010952;28;20433;-59
2021/05/04 07:57:06;;;;;;;2.50;1.75;;;23.70;31.40;;;;;;5012006;28;20446;-60
2021/05/04 07:59:32;;;;;;;2.47;1.73;;;23.70;31.50;;;;;;5013163;28;20018;-57
2021/05/04 08:01:59;;;;;;;2.85;1.75;;;23.80;31.50;;;;;;5011781;28;20041;-58
2021/05/04 08:04:25;;;;;;;2.90;1.75;;;23.80;31.50;;;;;;5014357;28;20029;-57
2021/05/04 08:06:51;;;;;;;3.20;2.35;;;23.70;31.50;;;;;;5014595;28;20087;-57
2021/05/04 08:09:17;;;;;;;3.35;2.05;;;23.70;31.50;;;;;;5013646;28;20389;-57
2021/05/04 08:11:43;;;;;;;3.17;2.08;;;23.70;31.50;;;;;;5014427;28;20141;-60
2021/05/04 08:14:09;;;;;;;2.88;2.20;;;23.80;31.50;;;;;;5012971;28;20038;-58
2021/05/04 08:16:35;;;;;;;3.70;2.30;;;23.70;31.50;;;;;;5014346;28;20107;-58
2021/05/04 08:19:01;;;;;;;3.85;2.25;;;23.70;31.40;;;;;;5014105;28;20048;-58
2021/05/04 08:21:31;;;;;;;3.42;2.33;;;23.70;31.50;;;;;;5013469;28;20022;-60
2021/05/04 08:23:56;;;;;;;3.85;2.13;;;23.70;31.50;;;;;;5013662;28;20188;-60
2021/05/04 08:26:22;;;;;;;3.50;2.50;;;23.70;31.50;;;;;;5013263;28;20109;-58
2021/05/04 08:28:49;;;;;;;2.60;2.15;;;23.70;31.50;;;;;;5013445;28;20034;-55
2021/05/04 08:31:14;;;;;;;2.88;2.40;;;23.70;31.50;;;;;;5013973;28;20021;-58
2021/05/04 08:33:40;;;;;;;3.17;2.38;;;23.70;31.60;;;;;;5014089;28;20040;-60
2021/05/04 08:36:06;;;;;;;3.42;2.50;;;23.70;31.60;;;;;;5013471;28;20038;-59
2021/05/04 08:38:32;;;;;;;3.90;2.70;;;23.70;31.70;;;;;;5014180;28;20319;-58
2021/05/04 08:41:00;;;;;;;3.20;2.60;;;23.70;31.70;;;;;;5013369;28;20034;-57
2021/05/04 08:43:26;;;;;;;4.88;2.58;;;23.70;31.70;;;;;;5013357;28;20033;-53
2021/05/04 08:45:57;;;;;;;2.92;2.60;;;23.70;31.70;;;;;;5013569;28;20041;-57
2021/05/04 08:48:27;;;;;;;3.83;3.00;;;23.70;31.70;;;;;;5013773;28;20377;-58
2021/05/04 08:50:55;;;;;;;3.35;2.83;;;23.70;31.70;;;;;;5011910;28;20030;-56
2021/05/04 08:53:22;;;;;;;4.50;3.55;;;23.70;31.70;;;;;;5013587;28;20033;-59
2021/05/04 08:55:47;;;;;;;3.38;2.92;;;23.60;31.60;;;;;;5014164;28;20036;-55
2021/05/04 08:58:14;;;;;;;4.15;3.30;;;23.60;31.60;;;;;;5013495;28;20045;-57
2021/05/04 09:00:39;;;;;;;5.13;3.17;;;23.60;31.50;;;;;;5012421;28;20100;-55
2021/05/04 09:03:09;;;;;;;3.60;3.00;;;23.70;31.60;;;;;;5013071;28;20038;-59
2021/05/04 09:11:36;;;;;;;4.15;3.25;;;23.60;31.50;;;;;;5017386;28;20121;-59
2021/05/04 09:21:47;;;;;;;4.38;3.15;;;23.60;31.80;;;;;;5016064;28;20117;-58
2021/05/04 09:24:25;;;;;;;5.38;4.00;;;23.60;31.90;;;;;;5016961;28;20026;-58
2021/05/04 09:27:07;;;;;;;4.65;3.72;;;23.50;32.00;;;;;;5014889;28;20430;-59
2021/05/04 09:29:38;;;;;;;4.20;3.33;;;23.50;32.10;;;;;;5017020;28;20046;-58
2021/05/04 09:32:16;;;;;;;4.93;3.72;;;23.50;32.20;;;;;;5016995;28;20373;-54
2021/05/04 09:34:47;;;;;;;4.25;3.42;;;23.50;32.20;;;;;;5016014;28;20052;-57
2021/05/04 09:37:37;;;;;;;5.32;3.78;;;23.50;32.20;;;;;;5016965;28;20026;-58
2021/05/04 09:40:20;;;;;;;5.20;4.07;;;23.50;32.20;;;;;;5009860;28;20442;-59
2021/05/04 09:42:47;;;;;;;5.28;3.83;;;23.50;32.30;;;;;;5016330;28;20037;-54
2021/05/04 09:45:23;;;;;;;5.32;3.38;;;23.50;32.20;;;;;;5015308;28;20108;-56
2021/05/04 09:48:17;;;;;;;4.45;3.75;;;23.50;32.20;;;;;;5016098;28;20033;-57
2021/05/04 09:50:47;;;;;;;4.55;3.65;;;23.50;32.20;;;;;;5015789;28;20041;-58
2021/05/04 09:53:16;;;;;;;4.70;3.80;;;23.50;32.20;;;;;;5016222;28;20445;-55
2021/05/04 09:55:59;;;;;;;5.07;4.18;;;23.50;32.20;;;;;;5014913;28;20349;-56
2021/05/04 09:58:48;;;;;;;4.57;3.67;;;23.50;32.20;;;;;;5016609;28;20060;-55
2021/05/04 10:01:16;;;;;;;5.38;3.83;;;23.50;32.20;;;;;;5014646;28;20441;-56
2021/05/04 10:03:45;;;;;;;5.70;4.45;;;23.50;32.20;;;;;;5013968;28;20040;-60
2021/05/04 10:06:13;;;;;;;5.63;4.50;;;23.50;32.20;;;;;;5014746;28;20358;-60
2021/05/04 10:08:40;;;;;;;5.40;4.30;;;23.50;32.30;;;;;;5016285;28;20037;-58
2021/05/04 10:11:10;;;;;;;7.63;5.10;;;23.50;32.20;;;;;;5013209;28;20026;-60
2021/05/04 10:13:38;;;;;;;6.22;5.10;;;23.60;32.30;;;;;;5014968;28;20449;-52
2021/05/04 10:16:06;;;;;;;6.18;4.97;;;23.60;32.30;;;;;;5015377;28;20045;-55
2021/05/04 10:18:32;;;;;;;6.18;4.57;;;23.70;32.50;;;;;;5013319;28;20056;-56
2021/05/04 10:21:03;;;;;;;6.43;5.00;;;23.80;32.50;;;;;;5011847;28;20049;-57
2021/05/04 10:23:31;;;;;;;5.65;4.68;;;23.90;32.60;;;;;;5017658;28;20018;-57
2021/05/04 10:26:02;;;;;;;6.32;4.60;;;24.00;32.40;;;;;;5014795;28;20034;-59
2021/05/04 10:28:35;;;;;;;6.65;4.50;;;24.10;32.30;;;;;;5013652;28;20038;-59
2021/05/04 10:31:05;;;;;;;6.53;4.70;;;24.20;32.20;;;;;;5013072;28;20030;-56
2021/05/04 10:33:36;;;;;;;5.63;4.85;;;24.30;32.10;;;;;;5014568;28;20026;-54
2021/05/04 10:36:04;;;;;;;5.55;4.50;;;24.30;31.90;;;;;;5015226;28;20034;-58
2021/05/04 10:38:52;;;;;;;5.43;4.28;;;24.40;31.80;;;;;;5014340;28;20116;-55
2021/05/04 10:41:19;;;;;;;5.35;4.30;;;24.50;31.70;;;;;;5015689;28;20042;-55
2021/05/04 10:43:45;;;;;;;5.75;4.65;;;24.60;31.80;;;;;;5015071;28;20172;-54
2021/05/04 10:46:33;;;;;;;6.90;4.38;;;24.70;31.80;;;;;;5014928;28;20124;-54
2021/05/04 10:48:59;;;;;;;6.13;4.50;;;24.90;32.00;;;;;;5009191;28;20041;-55
2021/05/04 10:51:41;;;;;;;5.82;4.65;;;25.00;31.80;;;;;;5013936;28;20033;-57
2021/05/04 10:54:08;;;;;;;4.35;3.90;;;25.10;31.70;;;;;;5004794;28;20025;-56
2021/05/04 10:57:01;;;;;;;5.47;4.10;;;25.20;31.60;;;;;;5014118;28;20102;-54
2021/05/04 10:59:27;;;;;;;5.00;4.00;;;25.30;31.40;;;;;;4972796;28;20039;-53
2021/05/04 11:02:26;;;;;;;4.43;3.60;;;25.40;31.20;;;;;;4976279;28;20366;-49
2021/05/04 11:04:55;;;;;;;4.47;3.47;;;25.40;30.80;;;;;;4954289;28;20113;-53
2021/05/04 11:07:57;;;;;;;4.40;3.65;;;25.50;30.70;;;;;;4976112;28;20023;-51
2021/05/04 11:10:26;;;;;;;6.75;3.58;;;25.60;30.40;;;;;;4963512;28;20054;-54
2021/05/04 11:12:53;;;;;;;6.55;3.92;;;25.60;30.50;;;;;;4973635;28;20438;-52
2021/05/04 11:15:27;;;;;;;5.88;3.88;;;25.60;30.80;;;;;;4976002;28;20031;-55
2021/05/04 11:17:53;;;;;;;5.13;3.65;;;25.70;31.00;;;;;;4976125;28;20113;-46
2021/05/04 11:20:33;;;;;;;5.88;3.72;;;25.80;31.10;;;;;;4974520;28;20039;-51
2021/05/04 11:23:00;;;;;;;5.45;3.97;;;25.80;31.10;;;;;;4975169;28;20039;-47
2021/05/04 11:25:37;;;;;;;5.22;4.30;;;25.80;31.10;;;;;;4976190;28;20038;-52
2021/05/04 11:28:04;;;;;;;6.45;4.68;;;25.80;30.80;;;;;;4975043;28;20031;-51
2021/05/04 11:30:32;;;;;;;4.70;3.67;;;25.80;30.70;;;;;;4975863;28;20031;-50
2021/05/04 11:32:59;;;;;;;4.72;3.72;;;25.90;30.70;;;;;;4974804;28;20030;-54
2021/05/04 11:35:36;;;;;;;4.82;3.65;;;25.90;30.60;;;;;;4974968;28;20023;-50
2021/05/04 11:38:02;;;;;;;5.25;4.00;;;25.90;30.40;;;;;;4975273;28;20031;-54
2021/05/04 11:40:29;;;;;;;4.68;3.95;;;25.90;30.40;;;;;;4974615;28;20089;-57
2021/05/04 11:42:57;;;;;;;4.65;3.65;;;26.00;30.30;;;;;;4974300;28;20114;-54
2021/05/04 11:45:28;;;;;;;5.95;4.18;;;26.00;30.20;;;;;;4975070;28;20031;-57
2021/05/04 11:48:08;;;;;;;3.70;3.15;;;26.00;30.10;;;;;;4957679;28;20455;-58
2021/05/04 11:50:41;;;;;;;4.47;3.80;;;26.00;30.10;;;;;;4975070;28;20413;-54
2021/05/04 11:53:09;;;;;;;4.93;4.13;;;26.00;30.00;;;;;;4974718;28;20097;-54
2021/05/04 11:55:40;;;;;;;5.25;4.05;;;26.10;30.00;;;;;;4972945;28;20030;-54
2021/05/04 11:58:24;;;;;;;4.80;3.95;;;26.10;30.00;;;;;;4991550;28;20117;-57
2021/05/04 12:01:05;;;;;;;4.90;4.28;;;26.10;30.00;;;;;;5012254;28;20076;-60
2021/05/04 12:03:32;;;;;;;5.07;4.03;;;26.10;30.00;;;;;;5009230;28;20058;-54
2021/05/04 12:06:03;;;;;;;4.88;4.18;;;26.10;30.00;;;;;;5010585;28;20453;-55
2021/05/04 12:08:30;;;;;;;8.02;4.75;;;26.10;29.90;;;;;;5008313;28;20034;-58
2021/05/04 12:10:56;;;;;;;4.57;4.03;;;26.10;29.90;;;;;;5007817;28;20354;-60
2021/05/04 12:13:24;;;;;;;5.95;4.82;;;26.10;29.80;;;;;;5012523;28;20030;-57
2021/05/04 12:15:57;;;;;;;6.43;5.28;;;26.10;29.70;;;;;;5009624;28;20335;-59
2021/05/04 12:18:25;;;;;;;5.70;4.78;;;26.00;29.60;;;;;;5007075;28;20350;-60
2021/05/04 12:20:55;;;;;;;4.97;4.22;;;26.00;29.60;;;;;;5010188;28;20022;-56
2021/05/04 12:23:26;;;;;;;4.93;4.40;;;26.00;29.50;;;;;;5012613;28;20083;-59
2021/05/04 12:25:59;;;;;;;7.10;4.47;;;25.90;29.40;;;;;;5012054;28;20173;-61
2021/05/04 12:28:31;;;;;;;5.13;4.07;;;25.90;29.30;;;;;;5009103;28;20053;-62
2021/05/04 12:31:07;;;;;;;5.88;4.55;;;25.90;29.30;;;;;;5009130;28;20180;-59
2021/05/04 12:33:34;;;;;;;5.30;4.30;;;25.90;29.30;;;;;;5008769;28;20061;-59
2021/05/04 12:36:08;;;;;;;5.88;4.32;;;25.80;29.20;;;;;;5011668;28;20103;-58
2021/05/04 12:41:17;;;;;;;4.88;4.05;;;25.80;29.20;;;;;;5010446;28;20030;-57
2021/05/04 12:44:21;;;;;;;5.15;4.32;;;25.80;29.20;;;;;;5010987;28;20367;-58
2021/05/04 12:46:52;;;;;;;4.97;3.88;;;25.70;29.10;;;;;;5011343;28;20030;-58
2021/05/04 12:49:18;;;;;;;5.07;4.40;;;25.70;29.20;;;;;;5015424;28;20034;-58
2021/05/04 12:51:46;;;;;;;5.00;4.40;;;25.70;29.10;;;;;;5015315;28;20030;-58
2021/05/04 12:54:19;;;;;;;5.10;3.78;;;25.70;29.20;;;;;;5015383;28;20030;-59
2021/05/04 12:56:50;;;;;;;5.05;3.88;;;25.70;29.20;;;;;;5015750;28;20049;-61
2021/05/04 12:59:25;;;;;;;7.50;3.97;;;25.70;29.30;;;;;;5016766;28;20080;-63
2021/05/04 13:01:53;;;;;;;4.95;3.53;;;25.70;29.30;;;;;;5010907;28;20046;-56
2021/05/04 13:07:41;;;;;;;5.03;3.03;;;25.70;29.30;;;;;;5008706;28;20044;-57
2021/05/04 13:13:53;;;;;;;;;;;25.60;29.30;;;;;;5014429;28;20030;-55
2021/05/04 13:32:52;;;;;;;7.20;5.50;;;25.50;29.30;;;;;;5013886;28;20041;-56